sensor_id;sensor_type;location;lat;lon;timestamp;temperature;humidity
73586;DHT22;61865;50.232;18.614;2022-09-13T00:01:01;6.20;99.90
73586;DHT22;61865;50.232;18.614;2022-09-13T00:03:23;6.10;99.90
73586;DHT22;61865;50.232;18.614;2022-09-13T00:05:45;6.10;99.90
73586;DHT22;61865;50.232;18.614;2022-09-13T00:08:08;6.00;99.90
73586;DHT22;61865;50.232;18.614;2022-09-13T00:10:32;5.90;99.90
73586;DHT22;61865;50.232;18.614;2022-09-13T00:12:54;5.80;99.90
73586;DHT22;61865;50.232;18.614;2022-09-13T00:15:16;5.80;99.90
73586;DHT22;61865;50.232;18.614;2022-09-13T00:17:40;5.70;99.90
73586;DHT22;61865;50.232;18.614;2022-09-13T00:20:02;5.70;99.90
73586;DHT22;61865;50.232;18.614;2022-09-13T00:22:25;5.70;99.90
73586;DHT22;61865;50.232;18.614;2022-09-13T00:24:47;5.60;99.90
73586;DHT22;61865;50.232;18.614;2022-09-13T00:27:09;5.70;99.90
73586;DHT22;61865;50.232;18.614;2022-09-13T00:29:32;5.60;99.90
73586;DHT22;61865;50.232;18.614;2022-09-13T00:31:54;5.60;99.90
73586;DHT22;61865;50.232;18.614;2022-09-13T00:34:17;5.60;99.90
73586;DHT22;61865;50.232;18.614;2022-09-13T00:36:39;5.70;99.90
73586;DHT22;61865;50.232;18.614;2022-09-13T00:39:01;5.70;99.90
73586;DHT22;61865;50.232;18.614;2022-09-13T00:41:23;5.60;99.90
73586;DHT22;61865;50.232;18.614;2022-09-13T00:43:48;5.60;99.90
73586;DHT22;61865;50.232;18.614;2022-09-13T00:46:11;5.60;99.90
73586;DHT22;61865;50.232;18.614;2022-09-13T00:48:35;5.50;99.90
73586;DHT22;61865;50.232;18.614;2022-09-13T00:50:59;5.50;99.90
73586;DHT22;61865;50.232;18.614;2022-09-13T00:53:25;5.40;99.90
73586;DHT22;61865;50.232;18.614;2022-09-13T00:55:53;5.30;99.90
73586;DHT22;61865;50.232;18.614;2022-09-13T00:58:19;5.20;99.90
73586;DHT22;61865;50.232;18.614;2022-09-13T01:00:41;5.10;99.90
73586;DHT22;61865;50.232;18.614;2022-09-13T01:03:06;5.10;99.90
73586;DHT22;61865;50.232;18.614;2022-09-13T01:05:32;5.10;99.90
73586;DHT22;61865;50.232;18.614;2022-09-13T01:07:56;5.00;99.90
73586;DHT22;61865;50.232;18.614;2022-09-13T01:10:19;5.00;99.90
73586;DHT22;61865;50.232;18.614;2022-09-13T01:12:47;4.90;99.90
73586;DHT22;61865;50.232;18.614;2022-09-13T01:15:10;5.00;99.90
73586;DHT22;61865;50.232;18.614;2022-09-13T01:17:33;5.00;99.90
73586;DHT22;61865;50.232;18.614;2022-09-13T01:19:55;5.00;99.90
73586;DHT22;61865;50.232;18.614;2022-09-13T01:28:11;5.30;99.90
73586;DHT22;61865;50.232;18.614;2022-09-13T01:30:42;5.40;99.90
73586;DHT22;61865;50.232;18.614;2022-09-13T01:33:25;5.40;99.90
73586;DHT22;61865;50.232;18.614;2022-09-13T01:35:59;5.30;99.90
73586;DHT22;61865;50.232;18.614;2022-09-13T01:38:42;5.30;99.90
73586;DHT22;61865;50.232;18.614;2022-09-13T01:41:19;5.20;99.90
73586;DHT22;61865;50.232;18.614;2022-09-13T01:43:52;5.10;99.90
73586;DHT22;61865;50.232;18.614;2022-09-13T01:46:22;5.10;99.90
73586;DHT22;61865;50.232;18.614;2022-09-13T01:48:54;5.20;99.90
73586;DHT22;61865;50.232;18.614;2022-09-13T01:51:22;5.20;99.90
73586;DHT22;61865;50.232;18.614;2022-09-13T01:53:51;5.20;99.90
73586;DHT22;61865;50.232;18.614;2022-09-13T01:56:21;5.10;99.90
73586;DHT22;61865;50.232;18.614;2022-09-13T01:58:47;5.00;99.90
73586;DHT22;61865;50.232;18.614;2022-09-13T02:01:14;5.00;99.90
73586;DHT22;61865;50.232;18.614;2022-09-13T02:03:43;5.00;99.90
73586;DHT22;61865;50.232;18.614;2022-09-13T02:06:11;5.10;99.90
73586;DHT22;61865;50.232;18.614;2022-09-13T02:08:38;5.10;99.90
73586;DHT22;61865;50.232;18.614;2022-09-13T02:11:06;5.10;99.90
73586;DHT22;61865;50.232;18.614;2022-09-13T02:13:35;5.00;99.90
73586;DHT22;61865;50.232;18.614;2022-09-13T02:16:01;5.00;99.90
73586;DHT22;61865;50.232;18.614;2022-09-13T02:18:31;5.10;99.90
73586;DHT22;61865;50.232;18.614;2022-09-13T02:21:00;5.10;99.90
73586;DHT22;61865;50.232;18.614;2022-09-13T02:23:28;5.00;99.90
73586;DHT22;61865;50.232;18.614;2022-09-13T02:25:53;5.00;99.90
73586;DHT22;61865;50.232;18.614;2022-09-13T02:28:20;5.00;99.90
73586;DHT22;61865;50.232;18.614;2022-09-13T02:30:48;5.00;99.90
73586;DHT22;61865;50.232;18.614;2022-09-13T02:33:14;5.00;99.90
73586;DHT22;61865;50.232;18.614;2022-09-13T02:35:40;5.00;99.90
73586;DHT22;61865;50.232;18.614;2022-09-13T02:38:09;5.00;99.90
73586;DHT22;61865;50.232;18.614;2022-09-13T02:40:38;5.00;99.90
73586;DHT22;61865;50.232;18.614;2022-09-13T02:43:04;5.10;99.90
73586;DHT22;61865;50.232;18.614;2022-09-13T02:45:32;5.10;99.90
73586;DHT22;61865;50.232;18.614;2022-09-13T02:47:59;5.00;99.90
73586;DHT22;61865;50.232;18.614;2022-09-13T02:50:35;5.00;99.90
73586;DHT22;61865;50.232;18.614;2022-09-13T02:53:05;5.00;99.90
73586;DHT22;61865;50.232;18.614;2022-09-13T02:55:41;4.90;99.90
73586;DHT22;61865;50.232;18.614;2022-09-13T02:58:09;4.80;99.90
73586;DHT22;61865;50.232;18.614;2022-09-13T03:00:32;4.90;99.90
73586;DHT22;61865;50.232;18.614;2022-09-13T03:02:55;4.80;99.90
73586;DHT22;61865;50.232;18.614;2022-09-13T03:05:19;4.80;99.90
73586;DHT22;61865;50.232;18.614;2022-09-13T03:07:41;4.90;99.90
73586;DHT22;61865;50.232;18.614;2022-09-13T03:10:07;4.90;99.90
73586;DHT22;61865;50.232;18.614;2022-09-13T03:12:58;4.80;99.90
73586;DHT22;61865;50.232;18.614;2022-09-13T03:15:31;4.80;99.90
73586;DHT22;61865;50.232;18.614;2022-09-13T03:18:06;4.70;99.90
73586;DHT22;61865;50.232;18.614;2022-09-13T03:20:39;4.80;99.90
73586;DHT22;61865;50.232;18.614;2022-09-13T03:23:26;4.90;99.90
73586;DHT22;61865;50.232;18.614;2022-09-13T03:26:16;4.90;99.90
73586;DHT22;61865;50.232;18.614;2022-09-13T03:28:50;4.90;99.90
73586;DHT22;61865;50.232;18.614;2022-09-13T03:31:20;4.90;99.90
73586;DHT22;61865;50.232;18.614;2022-09-13T03:33:51;4.80;99.90
73586;DHT22;61865;50.232;18.614;2022-09-13T03:36:18;4.80;99.90
73586;DHT22;61865;50.232;18.614;2022-09-13T03:38:45;4.80;99.90
73586;DHT22;61865;50.232;18.614;2022-09-13T03:41:15;4.80;99.90
73586;DHT22;61865;50.232;18.614;2022-09-13T03:43:43;4.80;99.90
73586;DHT22;61865;50.232;18.614;2022-09-13T03:46:08;4.80;99.90
73586;DHT22;61865;50.232;18.614;2022-09-13T03:48:34;4.80;99.90
73586;DHT22;61865;50.232;18.614;2022-09-13T03:50:57;4.90;99.90
73586;DHT22;61865;50.232;18.614;2022-09-13T03:53:21;5.00;99.90
73586;DHT22;61865;50.232;18.614;2022-09-13T03:55:44;5.00;99.90
73586;DHT22;61865;50.232;18.614;2022-09-13T03:58:09;5.10;99.90
73586;DHT22;61865;50.232;18.614;2022-09-13T04:00:32;5.00;99.90
73586;DHT22;61865;50.232;18.614;2022-09-13T04:02:54;5.00;99.90
73586;DHT22;61865;50.232;18.614;2022-09-13T04:05:16;5.00;99.90
73586;DHT22;61865;50.232;18.614;2022-09-13T04:07:38;5.00;99.90
73586;DHT22;61865;50.232;18.614;2022-09-13T04:10:00;5.00;99.90
73586;DHT22;61865;50.232;18.614;2022-09-13T04:12:22;5.00;99.90
73586;DHT22;61865;50.232;18.614;2022-09-13T04:14:45;5.00;99.90
73586;DHT22;61865;50.232;18.614;2022-09-13T04:17:07;5.00;99.90
73586;DHT22;61865;50.232;18.614;2022-09-13T04:19:29;5.00;99.90
73586;DHT22;61865;50.232;18.614;2022-09-13T04:21:53;5.10;99.90
73586;DHT22;61865;50.232;18.614;2022-09-13T04:24:16;5.10;99.90
73586;DHT22;61865;50.232;18.614;2022-09-13T04:26:38;5.10;99.90
73586;DHT22;61865;50.232;18.614;2022-09-13T04:28:59;5.10;99.90
73586;DHT22;61865;50.232;18.614;2022-09-13T04:31:23;5.20;99.90
73586;DHT22;61865;50.232;18.614;2022-09-13T04:33:44;5.20;99.90
73586;DHT22;61865;50.232;18.614;2022-09-13T04:36:06;5.30;99.90
73586;DHT22;61865;50.232;18.614;2022-09-13T04:38:28;5.20;99.90
73586;DHT22;61865;50.232;18.614;2022-09-13T04:40:52;5.30;99.90
73586;DHT22;61865;50.232;18.614;2022-09-13T04:43:14;5.30;99.90
73586;DHT22;61865;50.232;18.614;2022-09-13T04:45:36;5.30;99.90
73586;DHT22;61865;50.232;18.614;2022-09-13T04:48:00;5.30;99.90
73586;DHT22;61865;50.232;18.614;2022-09-13T04:50:23;5.40;99.90
73586;DHT22;61865;50.232;18.614;2022-09-13T04:52:45;5.50;99.90
73586;DHT22;61865;50.232;18.614;2022-09-13T04:55:08;5.70;99.90
73586;DHT22;61865;50.232;18.614;2022-09-13T04:57:30;5.90;99.90
73586;DHT22;61865;50.232;18.614;2022-09-13T04:59:51;5.90;99.90
73586;DHT22;61865;50.232;18.614;2022-09-13T05:02:13;6.00;99.90
73586;DHT22;61865;50.232;18.614;2022-09-13T05:04:37;6.00;99.90
73586;DHT22;61865;50.232;18.614;2022-09-13T05:06:59;6.10;99.90
73586;DHT22;61865;50.232;18.614;2022-09-13T05:09:21;6.30;99.90
73586;DHT22;61865;50.232;18.614;2022-09-13T05:11:42;6.40;99.90
73586;DHT22;61865;50.232;18.614;2022-09-13T05:14:04;6.50;99.90
73586;DHT22;61865;50.232;18.614;2022-09-13T05:16:29;6.60;99.90
73586;DHT22;61865;50.232;18.614;2022-09-13T05:18:52;6.80;99.90
73586;DHT22;61865;50.232;18.614;2022-09-13T05:21:16;6.90;99.90
73586;DHT22;61865;50.232;18.614;2022-09-13T05:23:38;7.10;99.90
73586;DHT22;61865;50.232;18.614;2022-09-13T05:26:02;7.30;99.90
73586;DHT22;61865;50.232;18.614;2022-09-13T05:28:26;7.60;99.90
73586;DHT22;61865;50.232;18.614;2022-09-13T05:30:55;7.80;99.90
73586;DHT22;61865;50.232;18.614;2022-09-13T05:33:17;8.10;99.90
73586;DHT22;61865;50.232;18.614;2022-09-13T05:35:39;8.40;99.90
73586;DHT22;61865;50.232;18.614;2022-09-13T05:38:03;8.70;99.90
73586;DHT22;61865;50.232;18.614;2022-09-13T05:40:24;8.90;99.90
73586;DHT22;61865;50.232;18.614;2022-09-13T05:42:46;9.10;99.90
73586;DHT22;61865;50.232;18.614;2022-09-13T05:45:08;9.30;99.90
73586;DHT22;61865;50.232;18.614;2022-09-13T05:47:30;9.50;99.90
73586;DHT22;61865;50.232;18.614;2022-09-13T05:49:52;9.70;99.90
73586;DHT22;61865;50.232;18.614;2022-09-13T05:52:14;9.90;99.90
73586;DHT22;61865;50.232;18.614;2022-09-13T05:54:37;10.00;99.90
73586;DHT22;61865;50.232;18.614;2022-09-13T05:56:59;10.20;99.90
73586;DHT22;61865;50.232;18.614;2022-09-13T05:59:21;10.30;99.90
73586;DHT22;61865;50.232;18.614;2022-09-13T06:01:42;10.40;99.90
73586;DHT22;61865;50.232;18.614;2022-09-13T06:04:04;10.40;99.90
73586;DHT22;61865;50.232;18.614;2022-09-13T06:06:26;10.50;99.90
73586;DHT22;61865;50.232;18.614;2022-09-13T06:08:51;10.60;99.90
73586;DHT22;61865;50.232;18.614;2022-09-13T06:11:14;10.70;99.90
73586;DHT22;61865;50.232;18.614;2022-09-13T06:13:37;10.90;99.90
73586;DHT22;61865;50.232;18.614;2022-09-13T06:16:01;10.90;99.90
73586;DHT22;61865;50.232;18.614;2022-09-13T06:18:24;11.10;99.90
73586;DHT22;61865;50.232;18.614;2022-09-13T06:20:46;11.20;99.90
73586;DHT22;61865;50.232;18.614;2022-09-13T06:23:08;11.40;99.90
73586;DHT22;61865;50.232;18.614;2022-09-13T06:25:30;11.50;99.90
73586;DHT22;61865;50.232;18.614;2022-09-13T06:27:53;11.60;99.90
73586;DHT22;61865;50.232;18.614;2022-09-13T06:30:15;11.80;99.90
73586;DHT22;61865;50.232;18.614;2022-09-13T06:32:39;12.00;99.90
73586;DHT22;61865;50.232;18.614;2022-09-13T06:35:01;12.10;99.90
73586;DHT22;61865;50.232;18.614;2022-09-13T06:37:22;12.30;99.90
73586;DHT22;61865;50.232;18.614;2022-09-13T06:39:44;12.40;99.90
73586;DHT22;61865;50.232;18.614;2022-09-13T06:42:06;12.50;99.90
73586;DHT22;61865;50.232;18.614;2022-09-13T06:44:30;12.60;99.90
73586;DHT22;61865;50.232;18.614;2022-09-13T06:46:52;12.80;99.90
73586;DHT22;61865;50.232;18.614;2022-09-13T06:49:14;12.90;99.90
73586;DHT22;61865;50.232;18.614;2022-09-13T06:51:36;13.00;99.90
73586;DHT22;61865;50.232;18.614;2022-09-13T06:53:58;13.10;99.90
73586;DHT22;61865;50.232;18.614;2022-09-13T06:56:21;13.30;99.90
73586;DHT22;61865;50.232;18.614;2022-09-13T06:58:46;13.40;99.90
73586;DHT22;61865;50.232;18.614;2022-09-13T07:01:12;13.60;99.90
73586;DHT22;61865;50.232;18.614;2022-09-13T07:03:34;13.80;99.90
73586;DHT22;61865;50.232;18.614;2022-09-13T07:05:56;14.00;99.90
73586;DHT22;61865;50.232;18.614;2022-09-13T07:08:18;14.10;99.90
73586;DHT22;61865;50.232;18.614;2022-09-13T07:10:39;14.30;99.90
73586;DHT22;61865;50.232;18.614;2022-09-13T07:13:01;14.50;99.90
73586;DHT22;61865;50.232;18.614;2022-09-13T07:15:23;14.60;99.90
73586;DHT22;61865;50.232;18.614;2022-09-13T07:17:47;14.70;99.90
73586;DHT22;61865;50.232;18.614;2022-09-13T07:20:09;14.80;99.90
73586;DHT22;61865;50.232;18.614;2022-09-13T07:22:31;14.90;99.90
73586;DHT22;61865;50.232;18.614;2022-09-13T07:24:53;14.90;99.90
73586;DHT22;61865;50.232;18.614;2022-09-13T07:27:16;14.90;99.90
73586;DHT22;61865;50.232;18.614;2022-09-13T07:29:38;14.90;99.90
73586;DHT22;61865;50.232;18.614;2022-09-13T07:32:00;14.90;99.90
73586;DHT22;61865;50.232;18.614;2022-09-13T07:34:25;14.90;99.90
73586;DHT22;61865;50.232;18.614;2022-09-13T07:36:47;14.90;99.90
73586;DHT22;61865;50.232;18.614;2022-09-13T07:39:09;14.90;99.90
73586;DHT22;61865;50.232;18.614;2022-09-13T07:41:32;15.00;99.90
73586;DHT22;61865;50.232;18.614;2022-09-13T07:43:55;15.00;99.90
73586;DHT22;61865;50.232;18.614;2022-09-13T07:46:18;15.00;99.90
73586;DHT22;61865;50.232;18.614;2022-09-13T07:48:41;15.10;99.90
73586;DHT22;61865;50.232;18.614;2022-09-13T07:51:07;15.20;99.90
73586;DHT22;61865;50.232;18.614;2022-09-13T07:53:29;15.30;99.90
73586;DHT22;61865;50.232;18.614;2022-09-13T07:55:51;15.40;99.90
73586;DHT22;61865;50.232;18.614;2022-09-13T07:58:13;15.40;99.90
73586;DHT22;61865;50.232;18.614;2022-09-13T08:00:35;15.50;99.90
73586;DHT22;61865;50.232;18.614;2022-09-13T08:02:56;15.70;99.90
73586;DHT22;61865;50.232;18.614;2022-09-13T08:05:18;15.80;99.90
73586;DHT22;61865;50.232;18.614;2022-09-13T08:07:42;16.00;99.90
73586;DHT22;61865;50.232;18.614;2022-09-13T08:10:04;16.10;99.90
73586;DHT22;61865;50.232;18.614;2022-09-13T08:12:26;16.20;99.90
73586;DHT22;61865;50.232;18.614;2022-09-13T08:14:48;16.30;99.90
73586;DHT22;61865;50.232;18.614;2022-09-13T08:17:10;16.40;99.90
73586;DHT22;61865;50.232;18.614;2022-09-13T08:19:32;16.60;99.90
73586;DHT22;61865;50.232;18.614;2022-09-13T08:21:53;16.70;99.90
73586;DHT22;61865;50.232;18.614;2022-09-13T08:24:18;16.80;99.90
73586;DHT22;61865;50.232;18.614;2022-09-13T08:26:40;17.00;99.90
73586;DHT22;61865;50.232;18.614;2022-09-13T08:29:04;17.10;99.90
73586;DHT22;61865;50.232;18.614;2022-09-13T08:31:27;17.20;99.90
73586;DHT22;61865;50.232;18.614;2022-09-13T08:33:49;17.20;99.90
73586;DHT22;61865;50.232;18.614;2022-09-13T08:36:10;17.30;99.90
73586;DHT22;61865;50.232;18.614;2022-09-13T08:38:33;17.30;99.90
73586;DHT22;61865;50.232;18.614;2022-09-13T08:40:58;17.20;99.90
73586;DHT22;61865;50.232;18.614;2022-09-13T08:43:29;17.30;99.90
73586;DHT22;61865;50.232;18.614;2022-09-13T08:45:57;17.30;99.90
73586;DHT22;61865;50.232;18.614;2022-09-13T08:48:23;17.30;99.90
73586;DHT22;61865;50.232;18.614;2022-09-13T08:50:58;17.30;99.90
73586;DHT22;61865;50.232;18.614;2022-09-13T08:53:24;17.40;99.90
73586;DHT22;61865;50.232;18.614;2022-09-13T08:55:54;17.50;99.80
73586;DHT22;61865;50.232;18.614;2022-09-13T08:58:28;17.60;98.40
73586;DHT22;61865;50.232;18.614;2022-09-13T09:00:57;17.70;97.10
73586;DHT22;61865;50.232;18.614;2022-09-13T09:03:27;17.60;98.00
73586;DHT22;61865;50.232;18.614;2022-09-13T09:05:50;17.50;95.20
73586;DHT22;61865;50.232;18.614;2022-09-13T09:08:23;17.50;97.00
73586;DHT22;61865;50.232;18.614;2022-09-13T09:10:48;17.60;99.90
73586;DHT22;61865;50.232;18.614;2022-09-13T09:13:17;17.70;98.00
73586;DHT22;61865;50.232;18.614;2022-09-13T09:15:46;17.80;99.60
73586;DHT22;61865;50.232;18.614;2022-09-13T09:18:13;17.90;96.50
73586;DHT22;61865;50.232;18.614;2022-09-13T09:20:40;18.00;95.30
73586;DHT22;61865;50.232;18.614;2022-09-13T09:23:07;18.10;92.70
73586;DHT22;61865;50.232;18.614;2022-09-13T09:25:33;18.10;91.50
73586;DHT22;61865;50.232;18.614;2022-09-13T09:27:57;18.10;93.00
73586;DHT22;61865;50.232;18.614;2022-09-13T09:30:20;18.20;93.10
73586;DHT22;61865;50.232;18.614;2022-09-13T09:32:52;18.30;92.20
73586;DHT22;61865;50.232;18.614;2022-09-13T09:35:32;18.50;90.80
73586;DHT22;61865;50.232;18.614;2022-09-13T09:38:13;18.50;90.30
73586;DHT22;61865;50.232;18.614;2022-09-13T09:40:39;18.60;87.80
73586;DHT22;61865;50.232;18.614;2022-09-13T09:43:11;18.70;89.70
73586;DHT22;61865;50.232;18.614;2022-09-13T09:45:38;18.80;88.60
73586;DHT22;61865;50.232;18.614;2022-09-13T09:48:07;18.90;90.40
73586;DHT22;61865;50.232;18.614;2022-09-13T09:50:33;18.90;84.00
73586;DHT22;61865;50.232;18.614;2022-09-13T09:53:02;19.00;87.50
73586;DHT22;61865;50.232;18.614;2022-09-13T09:55:27;18.90;81.30
73586;DHT22;61865;50.232;18.614;2022-09-13T09:57:52;18.80;80.70
73586;DHT22;61865;50.232;18.614;2022-09-13T10:00:15;18.70;83.70
73586;DHT22;61865;50.232;18.614;2022-09-13T10:02:42;18.70;85.20
73586;DHT22;61865;50.232;18.614;2022-09-13T10:05:06;18.80;84.90
73586;DHT22;61865;50.232;18.614;2022-09-13T10:07:30;18.70;82.40
73586;DHT22;61865;50.232;18.614;2022-09-13T10:09:58;18.70;90.20
73586;DHT22;61865;50.232;18.614;2022-09-13T10:12:25;18.90;85.90
73586;DHT22;61865;50.232;18.614;2022-09-13T10:14:48;19.00;83.70
73586;DHT22;61865;50.232;18.614;2022-09-13T10:17:16;19.00;82.60
73586;DHT22;61865;50.232;18.614;2022-09-13T10:19:39;19.10;83.90
73586;DHT22;61865;50.232;18.614;2022-09-13T10:22:04;19.00;83.20
73586;DHT22;61865;50.232;18.614;2022-09-13T10:24:27;19.10;81.00
73586;DHT22;61865;50.232;18.614;2022-09-13T10:26:50;19.20;80.00
73586;DHT22;61865;50.232;18.614;2022-09-13T10:29:14;19.20;78.40
73586;DHT22;61865;50.232;18.614;2022-09-13T10:31:38;19.30;80.00
73586;DHT22;61865;50.232;18.614;2022-09-13T10:34:03;19.40;80.90
73586;DHT22;61865;50.232;18.614;2022-09-13T10:36:31;19.50;76.50
73586;DHT22;61865;50.232;18.614;2022-09-13T10:38:59;19.50;77.80
73586;DHT22;61865;50.232;18.614;2022-09-13T10:41:23;19.60;76.50
73586;DHT22;61865;50.232;18.614;2022-09-13T10:43:47;19.60;74.80
73586;DHT22;61865;50.232;18.614;2022-09-13T10:46:12;19.60;78.30
73586;DHT22;61865;50.232;18.614;2022-09-13T10:48:44;19.70;75.90
73586;DHT22;61865;50.232;18.614;2022-09-13T10:51:11;19.80;74.00
73586;DHT22;61865;50.232;18.614;2022-09-13T10:53:37;19.80;76.10
73586;DHT22;61865;50.232;18.614;2022-09-13T10:56:01;19.90;75.10
73586;DHT22;61865;50.232;18.614;2022-09-13T10:58:24;20.00;75.30
73586;DHT22;61865;50.232;18.614;2022-09-13T11:04:30;20.10;73.60
73586;DHT22;61865;50.232;18.614;2022-09-13T11:07:13;20.00;74.30
73586;DHT22;61865;50.232;18.614;2022-09-13T11:09:41;20.00;74.90
73586;DHT22;61865;50.232;18.614;2022-09-13T11:12:13;20.00;73.00
73586;DHT22;61865;50.232;18.614;2022-09-13T11:14:47;20.10;71.70
73586;DHT22;61865;50.232;18.614;2022-09-13T11:17:19;20.40;70.10
73586;DHT22;61865;50.232;18.614;2022-09-13T11:22:53;21.00;67.20
73586;DHT22;61865;50.232;18.614;2022-09-13T11:25:35;21.20;66.00
73586;DHT22;61865;50.232;18.614;2022-09-13T11:28:06;21.40;62.50
73586;DHT22;61865;50.232;18.614;2022-09-13T11:30:35;21.70;64.40
73586;DHT22;61865;50.232;18.614;2022-09-13T11:33:12;22.00;62.00
73586;DHT22;61865;50.232;18.614;2022-09-13T11:35:50;22.30;60.60
73586;DHT22;61865;50.232;18.614;2022-09-13T11:38:33;22.60;61.70
73586;DHT22;61865;50.232;18.614;2022-09-13T11:40:59;23.00;59.10
73586;DHT22;61865;50.232;18.614;2022-09-13T11:43:37;23.10;57.30
73586;DHT22;61865;50.232;18.614;2022-09-13T11:46:09;23.10;57.60
73586;DHT22;61865;50.232;18.614;2022-09-13T11:51:25;23.10;56.20
73586;DHT22;61865;50.232;18.614;2022-09-13T11:54:12;23.00;56.20
73586;DHT22;61865;50.232;18.614;2022-09-13T11:56:38;23.20;58.30
73586;DHT22;61865;50.232;18.614;2022-09-13T11:59:14;23.30;57.50
73586;DHT22;61865;50.232;18.614;2022-09-13T12:01:40;23.40;56.40
73586;DHT22;61865;50.232;18.614;2022-09-13T12:04:06;23.40;57.10
73586;DHT22;61865;50.232;18.614;2022-09-13T12:06:34;23.20;58.30
73586;DHT22;61865;50.232;18.614;2022-09-13T12:09:01;23.10;58.60
73586;DHT22;61865;50.232;18.614;2022-09-13T12:11:28;22.80;58.90
73586;DHT22;61865;50.232;18.614;2022-09-13T12:13:55;22.50;59.40
73586;DHT22;61865;50.232;18.614;2022-09-13T12:16:22;22.20;58.50
73586;DHT22;61865;50.232;18.614;2022-09-13T12:18:48;22.00;59.90
73586;DHT22;61865;50.232;18.614;2022-09-13T12:21:13;22.00;60.10
73586;DHT22;61865;50.232;18.614;2022-09-13T12:23:42;21.90;65.20
73586;DHT22;61865;50.232;18.614;2022-09-13T12:26:10;21.80;66.70
73586;DHT22;61865;50.232;18.614;2022-09-13T12:28:39;21.80;68.20
73586;DHT22;61865;50.232;18.614;2022-09-13T12:31:06;21.80;70.30
73586;DHT22;61865;50.232;18.614;2022-09-13T12:33:31;21.90;67.60
73586;DHT22;61865;50.232;18.614;2022-09-13T12:36:05;21.90;67.30
73586;DHT22;61865;50.232;18.614;2022-09-13T12:38:42;22.00;65.40
73586;DHT22;61865;50.232;18.614;2022-09-13T12:41:21;21.80;64.10
73586;DHT22;61865;50.232;18.614;2022-09-13T12:46:57;21.90;63.70
73586;DHT22;61865;50.232;18.614;2022-09-13T12:49:31;21.90;65.20
73586;DHT22;61865;50.232;18.614;2022-09-13T12:52:07;22.00;62.80
73586;DHT22;61865;50.232;18.614;2022-09-13T12:54:45;22.00;62.40
73586;DHT22;61865;50.232;18.614;2022-09-13T12:57:21;22.10;63.00
73586;DHT22;61865;50.232;18.614;2022-09-13T13:00:07;22.20;63.30
73586;DHT22;61865;50.232;18.614;2022-09-13T13:02:33;22.50;59.60
73586;DHT22;61865;50.232;18.614;2022-09-13T13:05:00;22.60;60.40
73586;DHT22;61865;50.232;18.614;2022-09-13T13:07:23;22.70;61.00
73586;DHT22;61865;50.232;18.614;2022-09-13T13:09:48;22.70;61.40
73586;DHT22;61865;50.232;18.614;2022-09-13T13:12:26;22.80;59.50
73586;DHT22;61865;50.232;18.614;2022-09-13T13:14:49;23.00;59.10
73586;DHT22;61865;50.232;18.614;2022-09-13T13:17:38;23.10;58.90
73586;DHT22;61865;50.232;18.614;2022-09-13T13:23:18;23.00;57.30
73586;DHT22;61865;50.232;18.614;2022-09-13T13:25:55;23.10;57.20
73586;DHT22;61865;50.232;18.614;2022-09-13T13:31:33;23.00;58.40
73586;DHT22;61865;50.232;18.614;2022-09-13T13:33:58;23.00;57.40
73586;DHT22;61865;50.232;18.614;2022-09-13T13:36:25;22.90;57.10
73586;DHT22;61865;50.232;18.614;2022-09-13T13:38:48;22.90;57.00
73586;DHT22;61865;50.232;18.614;2022-09-13T13:41:46;22.70;56.60
73586;DHT22;61865;50.232;18.614;2022-09-13T13:51:16;22.70;58.60
73586;DHT22;61865;50.232;18.614;2022-09-13T13:53:42;22.80;58.10
73586;DHT22;61865;50.232;18.614;2022-09-13T13:56:14;22.90;58.40
73586;DHT22;61865;50.232;18.614;2022-09-13T13:58:45;22.90;57.20
73586;DHT22;61865;50.232;18.614;2022-09-13T14:01:15;23.00;57.50
73586;DHT22;61865;50.232;18.614;2022-09-13T14:03:50;23.20;56.10
73586;DHT22;61865;50.232;18.614;2022-09-13T14:06:16;23.20;55.50
73586;DHT22;61865;50.232;18.614;2022-09-13T14:08:54;23.10;55.90
73586;DHT22;61865;50.232;18.614;2022-09-13T14:11:28;23.10;56.50
73586;DHT22;61865;50.232;18.614;2022-09-13T14:14:09;23.20;55.40
73586;DHT22;61865;50.232;18.614;2022-09-13T14:16:43;23.10;55.10
73586;DHT22;61865;50.232;18.614;2022-09-13T14:19:23;23.10;55.80
73586;DHT22;61865;50.232;18.614;2022-09-13T14:21:45;23.10;55.20
73586;DHT22;61865;50.232;18.614;2022-09-13T14:24:19;23.10;55.60
73586;DHT22;61865;50.232;18.614;2022-09-13T14:26:42;23.00;55.60
73586;DHT22;61865;50.232;18.614;2022-09-13T14:29:07;23.00;56.40
73586;DHT22;61865;50.232;18.614;2022-09-13T14:31:29;22.80;55.90
73586;DHT22;61865;50.232;18.614;2022-09-13T14:33:51;22.80;56.40
73586;DHT22;61865;50.232;18.614;2022-09-13T14:36:19;22.70;56.10
73586;DHT22;61865;50.232;18.614;2022-09-13T14:38:47;22.60;56.80
73586;DHT22;61865;50.232;18.614;2022-09-13T14:41:13;22.40;57.00
73586;DHT22;61865;50.232;18.614;2022-09-13T14:43:36;22.20;58.20
73586;DHT22;61865;50.232;18.614;2022-09-13T14:46:02;22.00;58.60
73586;DHT22;61865;50.232;18.614;2022-09-13T14:48:28;21.90;59.20
73586;DHT22;61865;50.232;18.614;2022-09-13T14:50:56;21.80;60.50
73586;DHT22;61865;50.232;18.614;2022-09-13T14:53:21;21.80;60.30
73586;DHT22;61865;50.232;18.614;2022-09-13T14:55:48;21.80;60.80
73586;DHT22;61865;50.232;18.614;2022-09-13T14:58:20;21.80;61.00
73586;DHT22;61865;50.232;18.614;2022-09-13T15:00:48;21.70;61.50
73586;DHT22;61865;50.232;18.614;2022-09-13T15:03:12;21.60;61.50
73586;DHT22;61865;50.232;18.614;2022-09-13T15:05:35;21.60;62.30
73586;DHT22;61865;50.232;18.614;2022-09-13T15:07:57;21.60;62.90
73586;DHT22;61865;50.232;18.614;2022-09-13T15:10:23;21.60;63.40
73586;DHT22;61865;50.232;18.614;2022-09-13T15:12:51;21.70;64.70
73586;DHT22;61865;50.232;18.614;2022-09-13T15:15:24;21.70;63.90
73586;DHT22;61865;50.232;18.614;2022-09-13T15:17:51;21.70;64.70
73586;DHT22;61865;50.232;18.614;2022-09-13T15:20:13;21.70;64.30
73586;DHT22;61865;50.232;18.614;2022-09-13T15:22:41;21.80;63.40
73586;DHT22;61865;50.232;18.614;2022-09-13T15:25:04;21.70;63.30
73586;DHT22;61865;50.232;18.614;2022-09-13T15:27:27;21.70;64.10
73586;DHT22;61865;50.232;18.614;2022-09-13T15:29:51;21.60;64.10
73586;DHT22;61865;50.232;18.614;2022-09-13T15:32:27;21.60;63.90
73586;DHT22;61865;50.232;18.614;2022-09-13T15:34:50;21.50;63.00
73586;DHT22;61865;50.232;18.614;2022-09-13T15:37:13;21.30;63.40
73586;DHT22;61865;50.232;18.614;2022-09-13T15:39:43;21.30;64.70
73586;DHT22;61865;50.232;18.614;2022-09-13T15:42:06;21.20;64.60
73586;DHT22;61865;50.232;18.614;2022-09-13T15:44:28;21.10;65.50
73586;DHT22;61865;50.232;18.614;2022-09-13T15:46:53;21.10;65.20
73586;DHT22;61865;50.232;18.614;2022-09-13T15:49:19;21.00;65.30